sensor_id;sensor_type;location;lat;lon;timestamp;P1;P4;P2;P0;N10;N4;N25;N1;N05;TS
53088;SPS30;38968;47.696;17.540;2023-03-23T00:00:35;0;;0;0;;;;;;
53088;SPS30;38968;47.696;17.540;2023-03-23T00:05:35;0;;0;0;;;;;;
53088;SPS30;38968;47.696;17.540;2023-03-23T00:10:35;0;;0;0;;;;;;
53088;SPS30;38968;47.696;17.540;2023-03-23T00:15:34;1;;1;1;;;;;;
53088;SPS30;38968;47.696;17.540;2023-03-23T00:20:34;1;;1;1;;;;;;
53088;SPS30;38968;47.696;17.540;2023-03-23T00:25:34;1;;1;1;;;;;;
53088;SPS30;38968;47.696;17.540;2023-03-23T00:30:35;0;;0;0;;;;;;
53088;SPS30;38968;47.696;17.540;2023-03-23T00:35:34;1;;1;1;;;;;;
53088;SPS30;38968;47.696;17.540;2023-03-23T00:40:34;0;;0;0;;;;;;
53088;SPS30;38968;47.696;17.540;2023-03-23T00:45:35;0;;0;0;;;;;;
53088;SPS30;38968;47.696;17.540;2023-03-23T00:50:35;0;;0;0;;;;;;
53088;SPS30;38968;47.696;17.540;2023-03-23T00:55:34;1;;1;0;;;;;;
53088;SPS30;38968;47.696;17.540;2023-03-23T01:00:35;0;;0;0;;;;;;
53088;SPS30;38968;47.696;17.540;2023-03-23T01:05:35;1;;1;1;;;;;;
53088;SPS30;38968;47.696;17.540;2023-03-23T01:10:34;1;;1;1;;;;;;
53088;SPS30;38968;47.696;17.540;2023-03-23T01:15:34;1;;1;1;;;;;;
53088;SPS30;38968;47.696;17.540;2023-03-23T01:20:35;1;;1;0;;;;;;
53088;SPS30;38968;47.696;17.540;2023-03-23T01:25:35;1;;1;1;;;;;;
53088;SPS30;38968;47.696;17.540;2023-03-23T01:30:34;1;;1;1;;;;;;
53088;SPS30;38968;47.696;17.540;2023-03-23T01:35:37;1;;1;1;;;;;;
53088;SPS30;38968;47.696;17.540;2023-03-23T01:40:34;1;;1;0;;;;;;
53088;SPS30;38968;47.696;17.540;2023-03-23T01:45:34;1;;1;1;;;;;;
53088;SPS30;38968;47.696;17.540;2023-03-23T01:50:51;1;;1;1;;;;;;
53088;SPS30;38968;47.696;17.540;2023-03-23T01:55:35;1;;1;1;;;;;;
53088;SPS30;38968;47.696;17.540;2023-03-23T02:00:34;1;;1;1;;;;;;
53088;SPS30;38968;47.696;17.540;2023-03-23T02:05:38;1;;1;1;;;;;;
53088;SPS30;38968;47.696;17.540;2023-03-23T02:10:35;1;;1;1;;;;;;
53088;SPS30;38968;47.696;17.540;2023-03-23T02:15:43;1;;1;1;;;;;;
53088;SPS30;38968;47.696;17.540;2023-03-23T02:20:39;1;;1;1;;;;;;
53088;SPS30;38968;47.696;17.540;2023-03-23T02:35:39;1;;1;1;;;;;;
53088;SPS30;38968;47.696;17.540;2023-03-23T02:40:39;1;;1;1;;;;;;
53088;SPS30;38968;47.696;17.540;2023-03-23T02:45:35;1;;1;1;;;;;;
53088;SPS30;38968;47.696;17.540;2023-03-23T02:50:36;1;;1;1;;;;;;
53088;SPS30;38968;47.696;17.540;2023-03-23T02:55:34;1;;1;1;;;;;;
53088;SPS30;38968;47.696;17.540;2023-03-23T03:00:35;2;;2;2;;;;;;
53088;SPS30;38968;47.696;17.540;2023-03-23T03:05:38;1;;1;1;;;;;;
53088;SPS30;38968;47.696;17.540;2023-03-23T03:10:43;1;;1;1;;;;;;
53088;SPS30;38968;47.696;17.540;2023-03-23T03:15:45;1;;1;1;;;;;;
53088;SPS30;38968;47.696;17.540;2023-03-23T03:20:35;1;;1;1;;;;;;
53088;SPS30;38968;47.696;17.540;2023-03-23T03:25:35;1;;1;1;;;;;;
53088;SPS30;38968;47.696;17.540;2023-03-23T03:30:35;2;;2;2;;;;;;
53088;SPS30;38968;47.696;17.540;2023-03-23T03:35:36;1;;1;1;;;;;;
53088;SPS30;38968;47.696;17.540;2023-03-23T03:40:34;2;;2;2;;;;;;
53088;SPS30;38968;47.696;17.540;2023-03-23T03:45:35;2;;2;2;;;;;;
53088;SPS30;38968;47.696;17.540;2023-03-23T03:50:34;3;;3;2;;;;;;
53088;SPS30;38968;47.696;17.540;2023-03-23T03:55:35;2;;2;2;;;;;;
53088;SPS30;38968;47.696;17.540;2023-03-23T04:00:35;2;;2;2;;;;;;
53088;SPS30;38968;47.696;17.540;2023-03-23T04:05:35;2;;2;2;;;;;;
53088;SPS30;38968;47.696;17.540;2023-03-23T04:10:34;2;;2;2;;;;;;
53088;SPS30;38968;47.696;17.540;2023-03-23T04:15:35;2;;2;1;;;;;;
53088;SPS30;38968;47.696;17.540;2023-03-23T04:20:34;1;;1;1;;;;;;
53088;SPS30;38968;47.696;17.540;2023-03-23T04:25:34;1;;1;1;;;;;;
53088;SPS30;38968;47.696;17.540;2023-03-23T04:30:34;1;;1;1;;;;;;
53088;SPS30;38968;47.696;17.540;2023-03-23T04:35:35;1;;1;1;;;;;;
53088;SPS30;38968;47.696;17.540;2023-03-23T04:40:35;1;;1;1;;;;;;
53088;SPS30;38968;47.696;17.540;2023-03-23T04:45:35;1;;1;1;;;;;;
53088;SPS30;38968;47.696;17.540;2023-03-23T04:50:35;2;;2;1;;;;;;
53088;SPS30;38968;47.696;17.540;2023-03-23T04:55:35;2;;2;2;;;;;;
53088;SPS30;38968;47.696;17.540;2023-03-23T05:00:35;2;;2;1;;;;;;
53088;SPS30;38968;47.696;17.540;2023-03-23T05:05:35;2;;2;1;;;;;;
53088;SPS30;38968;47.696;17.540;2023-03-23T05:10:34;2;;2;2;;;;;;
53088;SPS30;38968;47.696;17.540;2023-03-23T05:15:35;1;;1;1;;;;;;
53088;SPS30;38968;47.696;17.540;2023-03-23T05:20:34;3;;3;2;;;;;;
53088;SPS30;38968;47.696;17.540;2023-03-23T05:25:38;2;;2;2;;;;;;
53088;SPS30;38968;47.696;17.540;2023-03-23T05:30:34;4;;4;3;;;;;;
53088;SPS30;38968;47.696;17.540;2023-03-23T05:35:35;1;;1;1;;;;;;
53088;SPS30;38968;47.696;17.540;2023-03-23T05:40:35;1;;1;1;;;;;;
53088;SPS30;38968;47.696;17.540;2023-03-23T05:45:35;2;;2;2;;;;;;
53088;SPS30;38968;47.696;17.540;2023-03-23T05:50:35;3;;3;2;;;;;;
53088;SPS30;38968;47.696;17.540;2023-03-23T05:55:35;2;;2;2;;;;;;
53088;SPS30;38968;47.696;17.540;2023-03-23T06:00:35;2;;2;1;;;;;;
53088;SPS30;38968;47.696;17.540;2023-03-23T06:05:35;2;;2;2;;;;;;
53088;SPS30;38968;47.696;17.540;2023-03-23T06:10:35;2;;2;2;;;;;;
53088;SPS30;38968;47.696;17.540;2023-03-23T06:15:35;2;;2;1;;;;;;
53088;SPS30;38968;47.696;17.540;2023-03-23T06:20:35;1;;1;1;;;;;;
53088;SPS30;38968;47.696;17.540;2023-03-23T06:25:34;2;;2;2;;;;;;
53088;SPS30;38968;47.696;17.540;2023-03-23T06:30:34;2;;2;2;;;;;;
53088;SPS30;38968;47.696;17.540;2023-03-23T06:35:35;3;;3;3;;;;;;
53088;SPS30;38968;47.696;17.540;2023-03-23T06:40:34;3;;3;3;;;;;;
53088;SPS30;38968;47.696;17.540;2023-03-23T06:45:34;2;;2;2;;;;;;
53088;SPS30;38968;47.696;17.540;2023-03-23T06:50:34;2;;2;2;;;;;;
53088;SPS30;38968;47.696;17.540;2023-03-23T06:55:35;1;;1;1;;;;;;
53088;SPS30;38968;47.696;17.540;2023-03-23T07:00:35;1;;1;1;;;;;;
53088;SPS30;38968;47.696;17.540;2023-03-23T07:05:35;1;;1;1;;;;;;
53088;SPS30;38968;47.696;17.540;2023-03-23T07:10:34;1;;1;1;;;;;;
53088;SPS30;38968;47.696;17.540;2023-03-23T07:15:35;1;;1;1;;;;;;
53088;SPS30;38968;47.696;17.540;2023-03-23T07:20:35;0;;0;0;;;;;;
53088;SPS30;38968;47.696;17.540;2023-03-23T07:25:35;1;;1;1;;;;;;
53088;SPS30;38968;47.696;17.540;2023-03-23T07:30:35;1;;1;1;;;;;;
53088;SPS30;38968;47.696;17.540;2023-03-23T07:35:35;1;;1;1;;;;;;
53088;SPS30;38968;47.696;17.540;2023-03-23T07:40:35;0;;0;0;;;;;;
53088;SPS30;38968;47.696;17.540;2023-03-23T07:45:35;2;;2;2;;;;;;
53088;SPS30;38968;47.696;17.540;2023-03-23T07:50:34;1;;1;1;;;;;;
53088;SPS30;38968;47.696;17.540;2023-03-23T07:55:35;1;;1;1;;;;;;
53088;SPS30;38968;47.696;17.540;2023-03-23T08:00:35;1;;1;0;;;;;;
53088;SPS30;38968;47.696;17.540;2023-03-23T08:05:34;1;;1;0;;;;;;
53088;SPS30;38968;47.696;17.540;2023-03-23T08:10:35;1;;1;1;;;;;;
53088;SPS30;38968;47.696;17.540;2023-03-23T08:15:35;2;;2;1;;;;;;
53088;SPS30;38968;47.696;17.540;2023-03-23T08:20:35;1;;1;1;;;;;;
53088;SPS30;38968;47.696;17.540;2023-03-23T08:25:35;2;;2;2;;;;;;
53088;SPS30;38968;47.696;17.540;2023-03-23T08:30:35;2;;2;1;;;;;;
53088;SPS30;38968;47.696;17.540;2023-03-23T08:35:35;0;;0;0;;;;;;
53088;SPS30;38968;47.696;17.540;2023-03-23T08:40:35;1;;1;1;;;;;;
53088;SPS30;38968;47.696;17.540;2023-03-23T08:45:35;1;;1;1;;;;;;
53088;SPS30;38968;47.696;17.540;2023-03-23T08:50:34;1;;1;1;;;;;;
53088;SPS30;38968;47.696;17.540;2023-03-23T08:55:35;1;;1;1;;;;;;
53088;SPS30;38968;47.696;17.540;2023-03-23T09:00:35;1;;1;1;;;;;;
53088;SPS30;38968;47.696;17.540;2023-03-23T09:05:34;1;;1;1;;;;;;
53088;SPS30;38968;47.696;17.540;2023-03-23T09:10:35;2;;2;2;;;;;;
53088;SPS30;38968;47.696;17.540;2023-03-23T09:15:35;2;;2;2;;;;;;
53088;SPS30;38968;47.696;17.540;2023-03-23T09:20:35;1;;1;1;;;;;;
53088;SPS30;38968;47.696;17.540;2023-03-23T09:25:35;2;;2;2;;;;;;
53088;SPS30;38968;47.696;17.540;2023-03-23T09:30:35;2;;2;2;;;;;;
53088;SPS30;38968;47.696;17.540;2023-03-23T09:35:35;2;;2;2;;;;;;
53088;SPS30;38968;47.696;17.540;2023-03-23T09:40:43;2;;2;1;;;;;;
53088;SPS30;38968;47.696;17.540;2023-03-23T09:45:37;2;;2;2;;;;;;
53088;SPS30;38968;47.696;17.540;2023-03-23T09:50:34;2;;2;2;;;;;;
53088;SPS30;38968;47.696;17.540;2023-03-23T09:55:35;2;;2;2;;;;;;
53088;SPS30;38968;47.696;17.540;2023-03-23T10:00:45;4;;4;3;;;;;;
53088;SPS30;38968;47.696;17.540;2023-03-23T10:05:47;2;;2;2;;;;;;
53088;SPS30;38968;47.696;17.540;2023-03-23T10:15:36;2;;2;2;;;;;;
53088;SPS30;38968;47.696;17.540;2023-03-23T10:20:53;1;;1;1;;;;;;
53088;SPS30;38968;47.696;17.540;2023-03-23T10:25:36;2;;2;2;;;;;;
53088;SPS30;38968;47.696;17.540;2023-03-23T10:30:36;1;;1;1;;;;;;
53088;SPS30;38968;47.696;17.540;2023-03-23T10:35:36;3;;3;3;;;;;;
53088;SPS30;38968;47.696;17.540;2023-03-23T10:40:35;3;;3;3;;;;;;
53088;SPS30;38968;47.696;17.540;2023-03-23T10:45:35;3;;3;3;;;;;;
53088;SPS30;38968;47.696;17.540;2023-03-23T10:50:35;3;;3;2;;;;;;
53088;SPS30;38968;47.696;17.540;2023-03-23T10:55:36;2;;2;1;;;;;;
53088;SPS30;38968;47.696;17.540;2023-03-23T11:00:39;2;;2;2;;;;;;
53088;SPS30;38968;47.696;17.540;2023-03-23T11:05:40;2;;2;1;;;;;;
53088;SPS30;38968;47.696;17.540;2023-03-23T11:10:37;3;;3;2;;;;;;
53088;SPS30;38968;47.696;17.540;2023-03-23T11:15:36;2;;2;2;;;;;;
53088;SPS30;38968;47.696;17.540;2023-03-23T11:20:36;2;;2;2;;;;;;
53088;SPS30;38968;47.696;17.540;2023-03-23T11:25:46;2;;2;2;;;;;;
53088;SPS30;38968;47.696;17.540;2023-03-23T11:30:35;1;;1;1;;;;;;
53088;SPS30;38968;47.696;17.540;2023-03-23T11:35:35;2;;2;2;;;;;;
53088;SPS30;38968;47.696;17.540;2023-03-23T11:40:43;2;;2;2;;;;;;
53088;SPS30;38968;47.696;17.540;2023-03-23T11:45:36;2;;2;2;;;;;;
53088;SPS30;38968;47.696;17.540;2023-03-23T11:50:37;1;;1;1;;;;;;
53088;SPS30;38968;47.696;17.540;2023-03-23T11:55:36;1;;1;1;;;;;;
53088;SPS30;38968;47.696;17.540;2023-03-23T12:00:35;2;;2;1;;;;;;
53088;SPS30;38968;47.696;17.540;2023-03-23T12:05:42;1;;1;1;;;;;;
53088;SPS30;38968;47.696;17.540;2023-03-23T12:40:40;1;;1;1;;;;;;
53088;SPS30;38968;47.696;17.540;2023-03-23T13:05:39;1;;1;1;;;;;;
53088;SPS30;38968;47.696;17.540;2023-03-23T13:10:48;1;;1;1;;;;;;
53088;SPS30;38968;47.696;17.540;2023-03-23T13:25:38;1;;1;1;;;;;;
53088;SPS30;38968;47.696;17.540;2023-03-23T13:30:35;1;;1;1;;;;;;
53088;SPS30;38968;47.696;17.540;2023-03-23T13:35:38;2;;2;2;;;;;;
53088;SPS30;38968;47.696;17.540;2023-03-23T13:40:35;1;;1;1;;;;;;
53088;SPS30;38968;47.696;17.540;2023-03-23T13:45:44;1;;1;1;;;;;;
53088;SPS30;38968;47.696;17.540;2023-03-23T13:50:43;2;;2;1;;;;;;
53088;SPS30;38968;47.696;17.540;2023-03-23T14:00:47;1;;1;1;;;;;;
53088;SPS30;38968;47.696;17.540;2023-03-23T14:05:39;1;;1;1;;;;;;
53088;SPS30;38968;47.696;17.540;2023-03-23T14:15:40;1;;1;1;;;;;;
53088;SPS30;38968;47.696;17.540;2023-03-23T14:20:36;1;;1;1;;;;;;
53088;SPS30;38968;47.696;17.540;2023-03-23T14:25:34;1;;1;1;;;;;;
53088;SPS30;38968;47.696;17.540;2023-03-23T14:30:35;0;;0;0;;;;;;
53088;SPS30;38968;47.696;17.540;2023-03-23T14:35:35;1;;1;1;;;;;;
53088;SPS30;38968;47.696;17.540;2023-03-23T14:40:35;1;;1;1;;;;;;
53088;SPS30;38968;47.696;17.540;2023-03-23T14:45:35;1;;1;0;;;;;;
53088;SPS30;38968;47.696;17.540;2023-03-23T14:55:35;1;;1;1;;;;;;
53088;SPS30;38968;47.696;17.540;2023-03-23T15:00:36;1;;1;0;;;;;;
53088;SPS30;38968;47.696;17.540;2023-03-23T15:05:35;1;;1;1;;;;;;
53088;SPS30;38968;47.696;17.540;2023-03-23T15:10:35;1;;1;1;;;;;;
53088;SPS30;38968;47.696;17.540;2023-03-23T15:15:35;1;;1;1;;;;;;
53088;SPS30;38968;47.696;17.540;2023-03-23T15:20:47;1;;1;1;;;;;;
53088;SPS30;38968;47.696;17.540;2023-03-23T15:25:35;1;;1;1;;;;;;
53088;SPS30;38968;47.696;17.540;2023-03-23T15:30:35;0;;0;0;;;;;;
53088;SPS30;38968;47.696;17.540;2023-03-23T15:35:36;1;;1;0;;;;;;
53088;SPS30;38968;47.696;17.540;2023-03-23T15:40:38;1;;1;1;;;;;;
53088;SPS30;38968;47.696;17.540;2023-03-23T15:45:35;0;;0;0;;;;;;
53088;SPS30;38968;47.696;17.540;2023-03-23T15:50:35;1;;1;1;;;;;;
53088;SPS30;38968;47.696;17.540;2023-03-23T15:55:36;1;;1;1;;;;;;
53088;SPS30;38968;47.696;17.540;2023-03-23T16:00:35;0;;0;0;;;;;;
53088;SPS30;38968;47.696;17.540;2023-03-23T16:05:36;0;;0;0;;;;;;
53088;SPS30;38968;47.696;17.540;2023-03-23T16:10:35;0;;0;0;;;;;;
53088;SPS30;38968;47.696;17.540;2023-03-23T16:15:35;1;;1;1;;;;;;
53088;SPS30;38968;47.696;17.540;2023-03-23T16:20:35;1;;1;1;;;;;;
53088;SPS30;38968;47.696;17.540;2023-03-23T16:25:35;0;;0;0;;;;;;
53088;SPS30;38968;47.696;17.540;2023-03-23T16:30:35;1;;1;1;;;;;;
53088;SPS30;38968;47.696;17.540;2023-03-23T16:35:35;1;;1;1;;;;;;
53088;SPS30;38968;47.696;17.540;2023-03-23T16:40:35;2;;2;2;;;;;;
53088;SPS30;38968;47.696;17.540;2023-03-23T16:45:35;1;;1;1;;;;;;
53088;SPS30;38968;47.696;17.540;2023-03-23T16:50:35;1;;1;1;;;;;;
53088;SPS30;38968;47.696;17.540;2023-03-23T16:55:35;1;;1;1;;;;;;
53088;SPS30;38968;47.696;17.540;2023-03-23T17:00:35;1;;1;1;;;;;;
53088;SPS30;38968;47.696;17.540;2023-03-23T17:05:35;1;;1;1;;;;;;
53088;SPS30;38968;47.696;17.540;2023-03-23T17:10:36;2;;2;2;;;;;;
53088;SPS30;38968;47.696;17.540;2023-03-23T17:15:36;1;;1;1;;;;;;
53088;SPS30;38968;47.696;17.540;2023-03-23T17:20:35;1;;1;1;;;;;;
53088;SPS30;38968;47.696;17.540;2023-03-23T17:25:35;2;;2;1;;;;;;
53088;SPS30;38968;47.696;17.540;2023-03-23T17:30:35;1;;1;1;;;;;;
53088;SPS30;38968;47.696;17.540;2023-03-23T17:35:35;2;;2;2;;;;;;
53088;SPS30;38968;47.696;17.540;2023-03-23T17:40:35;1;;1;1;;;;;;
53088;SPS30;38968;47.696;17.540;2023-03-23T17:45:35;2;;2;2;;;;;;
53088;SPS30;38968;47.696;17.540;2023-03-23T17:50:35;2;;2;2;;;;;;
53088;SPS30;38968;47.696;17.540;2023-03-23T17:55:35;2;;2;2;;;;;;
53088;SPS30;38968;47.696;17.540;2023-03-23T18:00:35;3;;3;3;;;;;;
53088;SPS30;38968;47.696;17.540;2023-03-23T18:05:35;3;;3;3;;;;;;
53088;SPS30;38968;47.696;17.540;2023-03-23T18:10:35;3;;3;3;;;;;;
53088;SPS30;38968;47.696;17.540;2023-03-23T18:15:35;3;;3;3;;;;;;
53088;SPS30;38968;47.696;17.540;2023-03-23T18:20:37;2;;2;2;;;;;;
53088;SPS30;38968;47.696;17.540;2023-03-23T18:25:37;3;;3;2;;;;;;
53088;SPS30;38968;47.696;17.540;2023-03-23T18:30:35;3;;3;3;;;;;;
53088;SPS30;38968;47.696;17.540;2023-03-23T18:35:35;3;;3;3;;;;;;
53088;SPS30;38968;47.696;17.540;2023-03-23T18:40:40;3;;3;3;;;;;;
53088;SPS30;38968;47.696;17.540;2023-03-23T18:45:35;4;;4;4;;;;;;
53088;SPS30;38968;47.696;17.540;2023-03-23T18:50:36;3;;3;3;;;;;;
53088;SPS30;38968;47.696;17.540;2023-03-23T18:55:37;3;;3;3;;;;;;
53088;SPS30;38968;47.696;17.540;2023-03-23T19:00:36;3;;3;3;;;;;;
53088;SPS30;38968;47.696;17.540;2023-03-23T19:05:37;4;;4;4;;;;;;
53088;SPS30;38968;47.696;17.540;2023-03-23T19:10:38;4;;4;4;;;;;;
53088;SPS30;38968;47.696;17.540;2023-03-23T19:15:37;4;;4;4;;;;;;
53088;SPS30;38968;47.696;17.540;2023-03-23T19:20:35;5;;5;5;;;;;;
53088;SPS30;38968;47.696;17.540;2023-03-23T19:25:35;5;;5;4;;;;;;
53088;SPS30;38968;47.696;17.540;2023-03-23T19:30:35;3;;3;3;;;;;;
53088;SPS30;38968;47.696;17.540;2023-03-23T19:35:35;3;;3;3;;;;;;
53088;SPS30;38968;47.696;17.540;2023-03-23T19:40:35;3;;3;2;;;;;;
53088;SPS30;38968;47.696;17.540;2023-03-23T19:45:35;4;;4;4;;;;;;
53088;SPS30;38968;47.696;17.540;2023-03-23T19:50:35;6;;6;5;;;;;;
53088;SPS30;38968;47.696;17.540;2023-03-23T19:55:35;9;;9;8;;;;;;
53088;SPS30;38968;47.696;17.540;2023-03-23T20:00:35;16;;15;14;;;;;;
53088;SPS30;38968;47.696;17.540;2023-03-23T20:05:35;6;;6;6;;;;;;
53088;SPS30;38968;47.696;17.540;2023-03-23T20:10:36;7;;7;7;;;;;;
53088;SPS30;38968;47.696;17.540;2023-03-23T20:15:36;4;;4;4;;;;;;
53088;SPS30;38968;47.696;17.540;2023-03-23T20:20:35;8;;8;8;;;;;;
53088;SPS30;38968;47.696;17.540;2023-03-23T20:25:36;4;;4;3;;;;;;
53088;SPS30;38968;47.696;17.540;2023-03-23T20:30:36;3;;3;3;;;;;;
53088;SPS30;38968;47.696;17.540;2023-03-23T20:35:35;4;;4;4;;;;;;
53088;SPS30;38968;47.696;17.540;2023-03-23T20:40:35;4;;4;4;;;;;;
53088;SPS30;38968;47.696;17.540;2023-03-23T20:45:35;5;;5;4;;;;;;
53088;SPS30;38968;47.696;17.540;2023-03-23T20:50:35;5;;5;4;;;;;;
53088;SPS30;38968;47.696;17.540;2023-03-23T20:55:36;5;;5;5;;;;;;
53088;SPS30;38968;47.696;17.540;2023-03-23T21:00:35;4;;4;4;;;;;;
53088;SPS30;38968;47.696;17.540;2023-03-23T21:05:38;4;;4;4;;;;;;
53088;SPS30;38968;47.696;17.540;2023-03-23T21:10:36;4;;4;4;;;;;;
53088;SPS30;38968;47.696;17.540;2023-03-23T21:15:35;5;;5;4;;;;;;
53088;SPS30;38968;47.696;17.540;2023-03-23T21:20:36;6;;6;5;;;;;;
53088;SPS30;38968;47.696;17.540;2023-03-23T21:25:35;9;;9;9;;;;;;
53088;SPS30;38968;47.696;17.540;2023-03-23T21:30:35;7;;7;6;;;;;;
53088;SPS30;38968;47.696;17.540;2023-03-23T21:35:35;6;;6;6;;;;;;
53088;SPS30;38968;47.696;17.540;2023-03-23T21:40:35;6;;6;5;;;;;;
53088;SPS30;38968;47.696;17.540;2023-03-23T21:45:35;5;;5;4;;;;;;
53088;SPS30;38968;47.696;17.540;2023-03-23T21:50:35;6;;6;5;;;;;;
53088;SPS30;38968;47.696;17.540;2023-03-23T21:55:35;4;;4;3;;;;;;
53088;SPS30;38968;47.696;17.540;2023-03-23T22:00:35;5;;5;4;;;;;;
53088;SPS30;38968;47.696;17.540;2023-03-23T22:05:38;5;;5;4;;;;;;
53088;SPS30;38968;47.696;17.540;2023-03-23T22:10:38;5;;5;4;;;;;;
53088;SPS30;38968;47.696;17.540;2023-03-23T22:15:36;5;;5;5;;;;;;
53088;SPS30;38968;47.696;17.540;2023-03-23T22:20:35;4;;4;4;;;;;;
53088;SPS30;38968;47.696;17.540;2023-03-23T22:25:35;4;;4;4;;;;;;
53088;SPS30;38968;47.696;17.540;2023-03-23T22:30:35;5;;5;4;;;;;;
53088;SPS30;38968;47.696;17.540;2023-03-23T22:35:35;4;;4;4;;;;;;
53088;SPS30;38968;47.696;17.540;2023-03-23T22:40:35;4;;4;4;;;;;;
53088;SPS30;38968;47.696;17.540;2023-03-23T22:45:35;4;;4;4;;;;;;
53088;SPS30;38968;47.696;17.540;2023-03-23T22:50:35;4;;4;3;;;;;;
53088;SPS30;38968;47.696;17.540;2023-03-23T22:55:35;3;;3;3;;;;;;
53088;SPS30;38968;47.696;17.540;2023-03-23T23:00:35;4;;4;3;;;;;;
53088;SPS30;38968;47.696;17.540;2023-03-23T23:05:39;4;;4;4;;;;;;
53088;SPS30;38968;47.696;17.540;2023-03-23T23:10:35;4;;4;3;;;;;;
53088;SPS30;38968;47.696;17.540;2023-03-23T23:15:35;3;;3;3;;;;;;
53088;SPS30;38968;47.696;17.540;2023-03-23T23:20:35;4;;4;4;;;;;;
53088;SPS30;38968;47.696;17.540;2023-03-23T23:25:36;4;;4;4;;;;;;
53088;SPS30;38968;47.696;17.540;2023-03-23T23:30:35;4;;4;4;;;;;;
53088;SPS30;38968;47.696;17.540;2023-03-23T23:35:35;4;;4;4;;;;;;
53088;SPS30;38968;47.696;17.540;2023-03-23T23:40:35;3;;3;3;;;;;;
53088;SPS30;38968;47.696;17.540;2023-03-23T23:45:35;4;;4;4;;;;;;
53088;SPS30;38968;47.696;17.540;2023-03-23T23:50:35;4;;4;3;;;;;;
53088;SPS30;38968;47.696;17.540;2023-03-23T23:55:35;4;;4;4;;;;;;
